sensor_id;sensor_type;location;lat;lon;timestamp;P1;durP1;ratioP1;P2;durP2;ratioP2
42802;SDS011;28447;48.682;9.022;2023-03-01T05:00:35;37.03;;;17.57;;
42802;SDS011;28447;48.682;9.022;2023-03-01T05:03:01;30.83;;;16.20;;
42802;SDS011;28447;48.682;9.022;2023-03-01T05:05:28;28.90;;;14.87;;
42802;SDS011;28447;48.682;9.022;2023-03-01T05:07:59;30.00;;;16.27;;
42802;SDS011;28447;48.682;9.022;2023-03-01T05:10:27;33.67;;;17.83;;
42802;SDS011;28447;48.682;9.022;2023-03-01T05:12:54;29.87;;;15.60;;
42802;SDS011;28447;48.682;9.022;2023-03-01T05:15:22;27.30;;;14.77;;
42802;SDS011;28447;48.682;9.022;2023-03-01T05:17:50;37.43;;;18.17;;
42802;SDS011;28447;48.682;9.022;2023-03-01T05:20:17;28.70;;;14.47;;
42802;SDS011;28447;48.682;9.022;2023-03-01T05:22:43;39.03;;;17.80;;
42802;SDS011;28447;48.682;9.022;2023-03-01T05:25:08;30.77;;;15.20;;
42802;SDS011;28447;48.682;9.022;2023-03-01T05:27:34;33.33;;;16.10;;
42802;SDS011;28447;48.682;9.022;2023-03-01T05:30:00;30.63;;;16.50;;
42802;SDS011;28447;48.682;9.022;2023-03-01T05:32:38;33.70;;;16.97;;
42802;SDS011;28447;48.682;9.022;2023-03-01T05:35:08;30.80;;;16.70;;
42802;SDS011;28447;48.682;9.022;2023-03-01T05:37:38;32.93;;;16.60;;
42802;SDS011;28447;48.682;9.022;2023-03-01T05:40:05;32.23;;;17.17;;
42802;SDS011;28447;48.682;9.022;2023-03-01T05:42:32;34.37;;;16.33;;
42802;SDS011;28447;48.682;9.022;2023-03-01T05:44:58;30.43;;;16.00;;
42802;SDS011;28447;48.682;9.022;2023-03-01T05:47:23;35.20;;;17.43;;
42802;SDS011;28447;48.682;9.022;2023-03-01T05:49:49;27.47;;;14.40;;
42802;SDS011;28447;48.682;9.022;2023-03-01T05:52:15;32.97;;;17.10;;
42802;SDS011;28447;48.682;9.022;2023-03-01T05:54:40;35.67;;;15.93;;
42802;SDS011;28447;48.682;9.022;2023-03-01T05:57:06;32.90;;;16.10;;
42802;SDS011;28447;48.682;9.022;2023-03-01T05:59:31;38.63;;;17.40;;
42802;SDS011;28447;48.682;9.022;2023-03-01T06:01:57;41.23;;;17.20;;
42802;SDS011;28447;48.682;9.022;2023-03-01T06:04:23;29.33;;;15.03;;
42802;SDS011;28447;48.682;9.022;2023-03-01T06:06:48;37.63;;;18.37;;
42802;SDS011;28447;48.682;9.022;2023-03-01T06:09:14;34.20;;;17.70;;
42802;SDS011;28447;48.682;9.022;2023-03-01T06:11:40;35.70;;;16.40;;
42802;SDS011;28447;48.682;9.022;2023-03-01T06:14:07;32.17;;;16.00;;
42802;SDS011;28447;48.682;9.022;2023-03-01T06:16:33;35.00;;;16.97;;
42802;SDS011;28447;48.682;9.022;2023-03-01T06:18:58;37.20;;;17.33;;
42802;SDS011;28447;48.682;9.022;2023-03-01T06:21:24;35.73;;;18.27;;
42802;SDS011;28447;48.682;9.022;2023-03-01T06:23:50;33.20;;;16.07;;
42802;SDS011;28447;48.682;9.022;2023-03-01T06:26:16;33.63;;;16.30;;
42802;SDS011;28447;48.682;9.022;2023-03-01T06:28:42;35.20;;;16.73;;
42802;SDS011;28447;48.682;9.022;2023-03-01T06:31:10;32.83;;;17.03;;
42802;SDS011;28447;48.682;9.022;2023-03-01T06:33:36;30.90;;;15.90;;
42802;SDS011;28447;48.682;9.022;2023-03-01T06:36:02;39.40;;;17.53;;
42802;SDS011;28447;48.682;9.022;2023-03-01T06:38:28;31.23;;;17.03;;
42802;SDS011;28447;48.682;9.022;2023-03-01T06:40:54;33.10;;;16.83;;
42802;SDS011;28447;48.682;9.022;2023-03-01T06:43:21;31.93;;;16.13;;
42802;SDS011;28447;48.682;9.022;2023-03-01T06:45:48;36.10;;;19.00;;
42802;SDS011;28447;48.682;9.022;2023-03-01T06:48:14;33.20;;;17.17;;
42802;SDS011;28447;48.682;9.022;2023-03-01T06:50:39;33.63;;;17.23;;
42802;SDS011;28447;48.682;9.022;2023-03-01T06:53:05;29.90;;;16.50;;
42802;SDS011;28447;48.682;9.022;2023-03-01T06:55:30;32.67;;;15.33;;
42802;SDS011;28447;48.682;9.022;2023-03-01T06:57:57;35.50;;;17.03;;
42802;SDS011;28447;48.682;9.022;2023-03-01T07:00:23;29.30;;;15.37;;
42802;SDS011;28447;48.682;9.022;2023-03-01T07:02:50;41.20;;;17.37;;
42802;SDS011;28447;48.682;9.022;2023-03-01T07:05:16;33.53;;;17.50;;
42802;SDS011;28447;48.682;9.022;2023-03-01T07:07:42;31.23;;;16.63;;
42802;SDS011;28447;48.682;9.022;2023-03-01T07:10:08;34.63;;;16.13;;
42802;SDS011;28447;48.682;9.022;2023-03-01T07:12:34;32.50;;;16.13;;
42802;SDS011;28447;48.682;9.022;2023-03-01T07:15:00;32.60;;;16.40;;
42802;SDS011;28447;48.682;9.022;2023-03-01T07:17:25;33.97;;;16.90;;
42802;SDS011;28447;48.682;9.022;2023-03-01T07:19:51;35.43;;;18.90;;
42802;SDS011;28447;48.682;9.022;2023-03-01T07:22:17;34.70;;;17.07;;
42802;SDS011;28447;48.682;9.022;2023-03-01T07:24:42;32.40;;;17.00;;
42802;SDS011;28447;48.682;9.022;2023-03-01T07:27:08;33.80;;;17.00;;
42802;SDS011;28447;48.682;9.022;2023-03-01T07:29:34;32.90;;;16.50;;
42802;SDS011;28447;48.682;9.022;2023-03-01T07:32:01;34.50;;;18.00;;
42802;SDS011;28447;48.682;9.022;2023-03-01T07:34:27;42.40;;;18.20;;
42802;SDS011;28447;48.682;9.022;2023-03-01T07:36:53;32.00;;;15.23;;
42802;SDS011;28447;48.682;9.022;2023-03-01T07:39:19;29.40;;;16.50;;
42802;SDS011;28447;48.682;9.022;2023-03-01T07:41:44;36.53;;;18.13;;
42802;SDS011;28447;48.682;9.022;2023-03-01T07:44:10;30.13;;;15.67;;
42802;SDS011;28447;48.682;9.022;2023-03-01T07:46:35;35.67;;;16.47;;
42802;SDS011;28447;48.682;9.022;2023-03-01T07:49:01;34.43;;;17.20;;
42802;SDS011;28447;48.682;9.022;2023-03-01T07:51:27;30.20;;;16.53;;
42802;SDS011;28447;48.682;9.022;2023-03-01T07:53:52;34.17;;;18.27;;
42802;SDS011;28447;48.682;9.022;2023-03-01T07:56:18;32.50;;;17.10;;
42802;SDS011;28447;48.682;9.022;2023-03-01T07:58:44;34.50;;;18.13;;
42802;SDS011;28447;48.682;9.022;2023-03-01T08:01:14;36.80;;;16.77;;
42802;SDS011;28447;48.682;9.022;2023-03-01T08:03:42;30.37;;;16.60;;
42802;SDS011;28447;48.682;9.022;2023-03-01T08:06:11;35.40;;;17.23;;
42802;SDS011;28447;48.682;9.022;2023-03-01T08:08:38;35.20;;;16.07;;
42802;SDS011;28447;48.682;9.022;2023-03-01T08:11:05;36.47;;;18.17;;
42802;SDS011;28447;48.682;9.022;2023-03-01T08:13:31;35.80;;;18.33;;
42802;SDS011;28447;48.682;9.022;2023-03-01T08:16:03;33.40;;;17.97;;
42802;SDS011;28447;48.682;9.022;2023-03-01T08:18:31;38.10;;;19.10;;
42802;SDS011;28447;48.682;9.022;2023-03-01T08:21:07;33.57;;;17.67;;
42802;SDS011;28447;48.682;9.022;2023-03-01T08:23:34;39.50;;;16.57;;
42802;SDS011;28447;48.682;9.022;2023-03-01T08:26:11;30.17;;;17.20;;
42802;SDS011;28447;48.682;9.022;2023-03-01T08:28:37;33.93;;;16.33;;
42802;SDS011;28447;48.682;9.022;2023-03-01T08:31:12;34.73;;;18.60;;
42802;SDS011;28447;48.682;9.022;2023-03-01T08:33:48;37.03;;;18.60;;
42802;SDS011;28447;48.682;9.022;2023-03-01T08:36:20;34.77;;;18.47;;
42802;SDS011;28447;48.682;9.022;2023-03-01T08:38:49;32.43;;;19.10;;
42802;SDS011;28447;48.682;9.022;2023-03-01T08:41:15;37.63;;;17.57;;
42802;SDS011;28447;48.682;9.022;2023-03-01T08:43:41;36.20;;;19.00;;
42802;SDS011;28447;48.682;9.022;2023-03-01T08:46:06;34.13;;;17.37;;
42802;SDS011;28447;48.682;9.022;2023-03-01T08:48:32;33.13;;;17.77;;
42802;SDS011;28447;48.682;9.022;2023-03-01T08:51:06;31.37;;;16.90;;
42802;SDS011;28447;48.682;9.022;2023-03-01T08:53:33;38.03;;;17.70;;
42802;SDS011;28447;48.682;9.022;2023-03-01T08:56:02;32.00;;;17.17;;
42802;SDS011;28447;48.682;9.022;2023-03-01T08:58:29;32.77;;;17.17;;
42802;SDS011;28447;48.682;9.022;2023-03-01T09:00:54;33.10;;;17.07;;
42802;SDS011;28447;48.682;9.022;2023-03-01T09:03:21;34.33;;;17.97;;
42802;SDS011;28447;48.682;9.022;2023-03-01T09:05:47;35.90;;;18.60;;
42802;SDS011;28447;48.682;9.022;2023-03-01T09:08:15;31.20;;;17.10;;
42802;SDS011;28447;48.682;9.022;2023-03-01T09:10:42;32.77;;;16.70;;
42802;SDS011;28447;48.682;9.022;2023-03-01T09:13:07;37.03;;;21.30;;
42802;SDS011;28447;48.682;9.022;2023-03-01T09:15:34;32.50;;;18.30;;
42802;SDS011;28447;48.682;9.022;2023-03-01T09:18:01;28.57;;;16.03;;
42802;SDS011;28447;48.682;9.022;2023-03-01T09:20:26;37.80;;;18.13;;
42802;SDS011;28447;48.682;9.022;2023-03-01T09:22:52;29.60;;;16.57;;
42802;SDS011;28447;48.682;9.022;2023-03-01T09:25:18;33.63;;;17.60;;
42802;SDS011;28447;48.682;9.022;2023-03-01T09:27:43;32.67;;;17.43;;
42802;SDS011;28447;48.682;9.022;2023-03-01T09:30:09;35.17;;;17.60;;
42802;SDS011;28447;48.682;9.022;2023-03-01T09:32:35;30.70;;;17.70;;
42802;SDS011;28447;48.682;9.022;2023-03-01T09:35:01;28.60;;;17.43;;
42802;SDS011;28447;48.682;9.022;2023-03-01T09:37:28;31.10;;;17.23;;
42802;SDS011;28447;48.682;9.022;2023-03-01T09:39:54;37.07;;;19.07;;
42802;SDS011;28447;48.682;9.022;2023-03-01T09:42:20;36.30;;;17.43;;
42802;SDS011;28447;48.682;9.022;2023-03-01T09:45:02;30.00;;;18.10;;
42802;SDS011;28447;48.682;9.022;2023-03-01T09:47:31;33.07;;;16.97;;
42802;SDS011;28447;48.682;9.022;2023-03-01T09:52:54;32.37;;;17.83;;
42802;SDS011;28447;48.682;9.022;2023-03-01T10:03:44;26.53;;;16.77;;
42802;SDS011;28447;48.682;9.022;2023-03-01T10:06:25;26.40;;;16.23;;
42802;SDS011;28447;48.682;9.022;2023-03-01T10:11:32;31.37;;;17.70;;
42802;SDS011;28447;48.682;9.022;2023-03-01T10:16:58;28.03;;;17.53;;
42802;SDS011;28447;48.682;9.022;2023-03-01T10:22:05;29.27;;;17.00;;
42802;SDS011;28447;48.682;9.022;2023-03-01T10:24:35;27.97;;;17.10;;
42802;SDS011;28447;48.682;9.022;2023-03-01T10:27:04;28.57;;;18.00;;
42802;SDS011;28447;48.682;9.022;2023-03-01T10:29:44;30.63;;;17.40;;
42802;SDS011;28447;48.682;9.022;2023-03-01T10:32:15;26.30;;;16.73;;
42802;SDS011;28447;48.682;9.022;2023-03-01T10:34:42;33.77;;;16.60;;
42802;SDS011;28447;48.682;9.022;2023-03-01T10:39:56;26.73;;;17.13;;
42802;SDS011;28447;48.682;9.022;2023-03-01T10:42:33;23.53;;;15.80;;
42802;SDS011;28447;48.682;9.022;2023-03-01T10:50:48;30.40;;;18.37;;
42802;SDS011;28447;48.682;9.022;2023-03-01T10:53:36;29.70;;;17.60;;
42802;SDS011;28447;48.682;9.022;2023-03-01T10:58:36;28.07;;;16.30;;
42802;SDS011;28447;48.682;9.022;2023-03-01T11:03:37;27.10;;;15.97;;
42802;SDS011;28447;48.682;9.022;2023-03-01T11:08:43;28.47;;;17.73;;
42802;SDS011;28447;48.682;9.022;2023-03-01T11:13:34;28.07;;;16.80;;
42802;SDS011;28447;48.682;9.022;2023-03-01T11:16:05;34.60;;;18.47;;
42802;SDS011;28447;48.682;9.022;2023-03-01T11:18:34;32.40;;;18.47;;
42802;SDS011;28447;48.682;9.022;2023-03-01T11:21:00;26.00;;;15.93;;
42802;SDS011;28447;48.682;9.022;2023-03-01T11:23:28;29.37;;;17.40;;
42802;SDS011;28447;48.682;9.022;2023-03-01T11:25:55;29.87;;;17.47;;
42802;SDS011;28447;48.682;9.022;2023-03-01T11:28:24;32.03;;;16.43;;
42802;SDS011;28447;48.682;9.022;2023-03-01T11:31:02;29.37;;;17.03;;
42802;SDS011;28447;48.682;9.022;2023-03-01T11:39:03;25.83;;;16.87;;
42802;SDS011;28447;48.682;9.022;2023-03-01T11:41:40;30.27;;;16.57;;
42802;SDS011;28447;48.682;9.022;2023-03-01T11:44:12;26.13;;;16.30;;
42802;SDS011;28447;48.682;9.022;2023-03-01T12:06:38;28.63;;;19.30;;
42802;SDS011;28447;48.682;9.022;2023-03-01T12:31:58;22.93;;;17.33;;
42802;SDS011;28447;48.682;9.022;2023-03-01T12:34:32;25.13;;;16.90;;
42802;SDS011;28447;48.682;9.022;2023-03-01T12:51:24;25.83;;;17.50;;
42802;SDS011;28447;48.682;9.022;2023-03-01T12:53:53;22.70;;;16.50;;
42802;SDS011;28447;48.682;9.022;2023-03-01T12:56:23;31.10;;;17.60;;
42802;SDS011;28447;48.682;9.022;2023-03-01T13:17:47;23.40;;;16.70;;
42802;SDS011;28447;48.682;9.022;2023-03-01T13:20:14;22.13;;;15.90;;
42802;SDS011;28447;48.682;9.022;2023-03-01T13:22:45;21.60;;;16.30;;
42802;SDS011;28447;48.682;9.022;2023-03-01T13:25:19;19.30;;;14.90;;
42802;SDS011;28447;48.682;9.022;2023-03-01T13:27:46;20.73;;;16.57;;
42802;SDS011;28447;48.682;9.022;2023-03-01T13:35:53;19.57;;;14.80;;
42802;SDS011;28447;48.682;9.022;2023-03-01T13:41:16;20.57;;;15.20;;
42802;SDS011;28447;48.682;9.022;2023-03-01T13:44:02;21.73;;;16.20;;
42802;SDS011;28447;48.682;9.022;2023-03-01T13:46:52;24.80;;;14.43;;
42802;SDS011;28447;48.682;9.022;2023-03-01T13:49:23;22.23;;;15.13;;
42802;SDS011;28447;48.682;9.022;2023-03-01T13:51:52;23.20;;;15.00;;
42802;SDS011;28447;48.682;9.022;2023-03-01T13:54:23;23.23;;;14.67;;
42802;SDS011;28447;48.682;9.022;2023-03-01T13:56:55;21.17;;;14.80;;
42802;SDS011;28447;48.682;9.022;2023-03-01T13:59:23;19.93;;;14.63;;
42802;SDS011;28447;48.682;9.022;2023-03-01T14:01:54;21.20;;;14.57;;
42802;SDS011;28447;48.682;9.022;2023-03-01T14:07:11;23.80;;;16.67;;
42802;SDS011;28447;48.682;9.022;2023-03-01T14:09:43;19.43;;;13.60;;
42802;SDS011;28447;48.682;9.022;2023-03-01T14:19:56;20.80;;;16.43;;
42802;SDS011;28447;48.682;9.022;2023-03-01T14:22:27;22.10;;;16.10;;
42802;SDS011;28447;48.682;9.022;2023-03-01T14:24:56;21.87;;;15.87;;
42802;SDS011;28447;48.682;9.022;2023-03-01T14:27:38;23.80;;;16.70;;
42802;SDS011;28447;48.682;9.022;2023-03-01T14:30:11;25.53;;;17.27;;
42802;SDS011;28447;48.682;9.022;2023-03-01T14:32:41;22.67;;;16.80;;
42802;SDS011;28447;48.682;9.022;2023-03-01T14:38:27;23.73;;;16.83;;
42802;SDS011;28447;48.682;9.022;2023-03-01T14:40:56;21.80;;;16.03;;
42802;SDS011;28447;48.682;9.022;2023-03-01T14:43:24;22.97;;;17.03;;
42802;SDS011;28447;48.682;9.022;2023-03-01T14:45:52;26.33;;;17.07;;
42802;SDS011;28447;48.682;9.022;2023-03-01T14:48:18;22.00;;;15.63;;
42802;SDS011;28447;48.682;9.022;2023-03-01T14:50:44;22.53;;;17.00;;
42802;SDS011;28447;48.682;9.022;2023-03-01T14:53:15;25.87;;;18.03;;
42802;SDS011;28447;48.682;9.022;2023-03-01T14:55:53;25.50;;;17.90;;
42802;SDS011;28447;48.682;9.022;2023-03-01T14:58:22;24.77;;;17.10;;
42802;SDS011;28447;48.682;9.022;2023-03-01T15:00:59;25.80;;;17.43;;
42802;SDS011;28447;48.682;9.022;2023-03-01T15:03:35;24.40;;;16.63;;
42802;SDS011;28447;48.682;9.022;2023-03-01T15:06:06;24.80;;;18.07;;
42802;SDS011;28447;48.682;9.022;2023-03-01T15:08:33;24.80;;;16.93;;
42802;SDS011;28447;48.682;9.022;2023-03-01T15:11:03;26.33;;;18.57;;
42802;SDS011;28447;48.682;9.022;2023-03-01T15:13:38;28.63;;;17.60;;
42802;SDS011;28447;48.682;9.022;2023-03-01T15:18:33;31.70;;;17.47;;
42802;SDS011;28447;48.682;9.022;2023-03-01T15:21:07;28.70;;;16.93;;
42802;SDS011;28447;48.682;9.022;2023-03-01T15:23:35;26.93;;;18.10;;
42802;SDS011;28447;48.682;9.022;2023-03-01T15:26:03;24.43;;;16.77;;
42802;SDS011;28447;48.682;9.022;2023-03-01T15:28:30;26.07;;;17.97;;
42802;SDS011;28447;48.682;9.022;2023-03-01T15:31:20;25.40;;;17.47;;
42802;SDS011;28447;48.682;9.022;2023-03-01T15:33:48;26.50;;;17.70;;
42802;SDS011;28447;48.682;9.022;2023-03-01T15:36:31;30.67;;;17.63;;
42802;SDS011;28447;48.682;9.022;2023-03-01T15:41:58;26.57;;;17.00;;
42802;SDS011;28447;48.682;9.022;2023-03-01T15:44:30;29.50;;;18.40;;
42802;SDS011;28447;48.682;9.022;2023-03-01T15:47:00;29.60;;;19.13;;
42802;SDS011;28447;48.682;9.022;2023-03-01T15:49:41;27.77;;;18.60;;
42802;SDS011;28447;48.682;9.022;2023-03-01T15:52:21;28.73;;;18.47;;
42802;SDS011;28447;48.682;9.022;2023-03-01T15:55:00;28.80;;;18.53;;
42802;SDS011;28447;48.682;9.022;2023-03-01T15:57:28;28.63;;;17.37;;
42802;SDS011;28447;48.682;9.022;2023-03-01T15:59:54;34.07;;;17.67;;
42802;SDS011;28447;48.682;9.022;2023-03-01T16:02:20;28.33;;;16.73;;
42802;SDS011;28447;48.682;9.022;2023-03-01T16:04:47;28.60;;;16.17;;
42802;SDS011;28447;48.682;9.022;2023-03-01T16:07:16;30.63;;;17.83;;
42802;SDS011;28447;48.682;9.022;2023-03-01T16:09:41;32.30;;;17.50;;
42802;SDS011;28447;48.682;9.022;2023-03-01T16:12:12;29.50;;;17.27;;
42802;SDS011;28447;48.682;9.022;2023-03-01T16:14:40;29.20;;;16.37;;
42802;SDS011;28447;48.682;9.022;2023-03-01T16:17:06;32.83;;;16.80;;
42802;SDS011;28447;48.682;9.022;2023-03-01T16:19:34;28.77;;;15.77;;
42802;SDS011;28447;48.682;9.022;2023-03-01T16:22:02;26.90;;;16.57;;
42802;SDS011;28447;48.682;9.022;2023-03-01T16:24:28;29.90;;;16.70;;
42802;SDS011;28447;48.682;9.022;2023-03-01T16:26:53;28.50;;;15.97;;
42802;SDS011;28447;48.682;9.022;2023-03-01T16:29:19;28.07;;;15.90;;
42802;SDS011;28447;48.682;9.022;2023-03-01T16:31:45;32.13;;;16.73;;
42802;SDS011;28447;48.682;9.022;2023-03-01T16:34:10;31.77;;;16.90;;
42802;SDS011;28447;48.682;9.022;2023-03-01T16:36:36;35.53;;;18.20;;
42802;SDS011;28447;48.682;9.022;2023-03-01T16:39:02;36.80;;;18.07;;
42802;SDS011;28447;48.682;9.022;2023-03-01T16:41:28;31.07;;;15.30;;
42802;SDS011;28447;48.682;9.022;2023-03-01T16:43:53;29.67;;;15.67;;
42802;SDS011;28447;48.682;9.022;2023-03-01T16:46:21;23.93;;;15.00;;
42802;SDS011;28447;48.682;9.022;2023-03-01T16:48:48;30.30;;;16.90;;
42802;SDS011;28447;48.682;9.022;2023-03-01T16:51:14;28.50;;;15.80;;
42802;SDS011;28447;48.682;9.022;2023-03-01T16:53:40;29.87;;;15.43;;
42802;SDS011;28447;48.682;9.022;2023-03-01T16:56:07;29.57;;;16.77;;
42802;SDS011;28447;48.682;9.022;2023-03-01T16:58:35;32.90;;;16.73;;
42802;SDS011;28447;48.682;9.022;2023-03-01T17:01:09;28.20;;;15.63;;
42802;SDS011;28447;48.682;9.022;2023-03-01T17:03:40;30.03;;;16.03;;
42802;SDS011;28447;48.682;9.022;2023-03-01T17:06:08;29.10;;;15.60;;
42802;SDS011;28447;48.682;9.022;2023-03-01T17:08:36;30.90;;;17.20;;
42802;SDS011;28447;48.682;9.022;2023-03-01T17:11:07;32.60;;;16.83;;
42802;SDS011;28447;48.682;9.022;2023-03-01T17:13:35;28.03;;;15.27;;
42802;SDS011;28447;48.682;9.022;2023-03-01T17:16:05;30.80;;;14.90;;
42802;SDS011;28447;48.682;9.022;2023-03-01T17:18:35;31.80;;;16.27;;
42802;SDS011;28447;48.682;9.022;2023-03-01T17:21:02;30.07;;;15.97;;
42802;SDS011;28447;48.682;9.022;2023-03-01T17:23:29;32.07;;;15.97;;
42802;SDS011;28447;48.682;9.022;2023-03-01T17:25:56;25.33;;;14.50;;
42802;SDS011;28447;48.682;9.022;2023-03-01T17:28:22;33.07;;;15.80;;
42802;SDS011;28447;48.682;9.022;2023-03-01T17:30:50;28.53;;;14.90;;
42802;SDS011;28447;48.682;9.022;2023-03-01T17:33:16;24.43;;;15.03;;
42802;SDS011;28447;48.682;9.022;2023-03-01T17:35:43;33.73;;;16.00;;
42802;SDS011;28447;48.682;9.022;2023-03-01T17:38:11;32.07;;;15.47;;
42802;SDS011;28447;48.682;9.022;2023-03-01T17:40:38;30.00;;;14.20;;
42802;SDS011;28447;48.682;9.022;2023-03-01T17:43:04;31.20;;;16.63;;
42802;SDS011;28447;48.682;9.022;2023-03-01T17:45:30;33.73;;;15.87;;
42802;SDS011;28447;48.682;9.022;2023-03-01T17:47:56;31.03;;;16.27;;
42802;SDS011;28447;48.682;9.022;2023-03-01T17:50:21;34.37;;;16.40;;
42802;SDS011;28447;48.682;9.022;2023-03-01T17:52:47;32.73;;;15.67;;
42802;SDS011;28447;48.682;9.022;2023-03-01T17:55:14;29.77;;;15.57;;
42802;SDS011;28447;48.682;9.022;2023-03-01T17:57:40;33.30;;;16.23;;
42802;SDS011;28447;48.682;9.022;2023-03-01T18:00:06;30.80;;;14.53;;
42802;SDS011;28447;48.682;9.022;2023-03-01T18:02:34;33.90;;;15.97;;
42802;SDS011;28447;48.682;9.022;2023-03-01T18:05:00;33.70;;;16.00;;
42802;SDS011;28447;48.682;9.022;2023-03-01T18:07:26;31.07;;;16.30;;
42802;SDS011;28447;48.682;9.022;2023-03-01T18:09:52;34.93;;;16.80;;
42802;SDS011;28447;48.682;9.022;2023-03-01T18:12:17;33.77;;;15.93;;
42802;SDS011;28447;48.682;9.022;2023-03-01T18:14:43;36.80;;;17.37;;
42802;SDS011;28447;48.682;9.022;2023-03-01T18:17:09;36.27;;;17.10;;
42802;SDS011;28447;48.682;9.022;2023-03-01T18:19:37;41.63;;;17.13;;
42802;SDS011;28447;48.682;9.022;2023-03-01T18:22:05;32.50;;;16.57;;
42802;SDS011;28447;48.682;9.022;2023-03-01T18:24:32;32.23;;;15.90;;
42802;SDS011;28447;48.682;9.022;2023-03-01T18:26:58;34.10;;;16.70;;
42802;SDS011;28447;48.682;9.022;2023-03-01T18:29:24;36.30;;;17.30;;
42802;SDS011;28447;48.682;9.022;2023-03-01T18:31:50;38.00;;;18.57;;
42802;SDS011;28447;48.682;9.022;2023-03-01T18:34:16;34.17;;;16.87;;
42802;SDS011;28447;48.682;9.022;2023-03-01T18:36:41;30.93;;;17.13;;
42802;SDS011;28447;48.682;9.022;2023-03-01T18:39:07;32.17;;;18.00;;
42802;SDS011;28447;48.682;9.022;2023-03-01T18:41:33;32.50;;;16.27;;
42802;SDS011;28447;48.682;9.022;2023-03-01T18:44:00;33.60;;;17.57;;
42802;SDS011;28447;48.682;9.022;2023-03-01T18:46:27;31.90;;;16.37;;
42802;SDS011;28447;48.682;9.022;2023-03-01T18:48:53;34.80;;;17.03;;
42802;SDS011;28447;48.682;9.022;2023-03-01T18:51:20;34.70;;;15.40;;
42802;SDS011;28447;48.682;9.022;2023-03-01T18:53:48;33.43;;;16.60;;
42802;SDS011;28447;48.682;9.022;2023-03-01T18:56:13;29.37;;;14.33;;
42802;SDS011;28447;48.682;9.022;2023-03-01T18:58:40;29.10;;;15.30;;
42802;SDS011;28447;48.682;9.022;2023-03-01T19:01:16;34.27;;;14.67;;
42802;SDS011;28447;48.682;9.022;2023-03-01T19:03:43;35.43;;;15.13;;
42802;SDS011;28447;48.682;9.022;2023-03-01T19:06:09;30.50;;;15.87;;
42802;SDS011;28447;48.682;9.022;2023-03-01T19:08:35;31.50;;;15.53;;
42802;SDS011;28447;48.682;9.022;2023-03-01T19:11:02;29.30;;;16.47;;
42802;SDS011;28447;48.682;9.022;2023-03-01T19:13:28;32.27;;;17.07;;
42802;SDS011;28447;48.682;9.022;2023-03-01T19:18:44;33.13;;;17.10;;
42802;SDS011;28447;48.682;9.022;2023-03-01T19:21:15;29.23;;;15.00;;
42802;SDS011;28447;48.682;9.022;2023-03-01T19:23:42;34.03;;;16.17;;
42802;SDS011;28447;48.682;9.022;2023-03-01T19:26:09;34.80;;;18.17;;
42802;SDS011;28447;48.682;9.022;2023-03-01T19:28:36;29.70;;;16.03;;
42802;SDS011;28447;48.682;9.022;2023-03-01T19:31:04;33.80;;;16.60;;
42802;SDS011;28447;48.682;9.022;2023-03-01T19:33:31;37.53;;;17.40;;
42802;SDS011;28447;48.682;9.022;2023-03-01T19:35:58;34.43;;;16.87;;
42802;SDS011;28447;48.682;9.022;2023-03-01T19:38:25;39.47;;;16.90;;
42802;SDS011;28447;48.682;9.022;2023-03-01T19:40:51;35.63;;;17.00;;
42802;SDS011;28447;48.682;9.022;2023-03-01T19:43:16;39.93;;;17.30;;
42802;SDS011;28447;48.682;9.022;2023-03-01T19:45:42;34.90;;;17.10;;
42802;SDS011;28447;48.682;9.022;2023-03-01T19:48:10;34.87;;;16.50;;
42802;SDS011;28447;48.682;9.022;2023-03-01T19:50:35;29.30;;;15.93;;
42802;SDS011;28447;48.682;9.022;2023-03-01T19:53:02;36.47;;;15.80;;
42802;SDS011;28447;48.682;9.022;2023-03-01T19:55:28;31.60;;;15.60;;
42802;SDS011;28447;48.682;9.022;2023-03-01T19:57:54;33.87;;;17.53;;
42802;SDS011;28447;48.682;9.022;2023-03-01T20:00:19;34.50;;;16.57;;
42802;SDS011;28447;48.682;9.022;2023-03-01T20:02:45;34.30;;;16.10;;
42802;SDS011;28447;48.682;9.022;2023-03-01T20:05:11;36.47;;;16.23;;
42802;SDS011;28447;48.682;9.022;2023-03-01T20:07:36;33.10;;;16.33;;
42802;SDS011;28447;48.682;9.022;2023-03-01T20:10:04;29.20;;;16.13;;
42802;SDS011;28447;48.682;9.022;2023-03-01T20:12:30;33.67;;;15.10;;
42802;SDS011;28447;48.682;9.022;2023-03-01T20:14:55;30.60;;;15.00;;
42802;SDS011;28447;48.682;9.022;2023-03-01T20:17:21;32.87;;;16.43;;
42802;SDS011;28447;48.682;9.022;2023-03-01T20:19:47;33.57;;;15.40;;
42802;SDS011;28447;48.682;9.022;2023-03-01T20:22:13;35.57;;;17.00;;
42802;SDS011;28447;48.682;9.022;2023-03-01T20:24:42;32.80;;;16.10;;
42802;SDS011;28447;48.682;9.022;2023-03-01T20:27:07;33.33;;;16.07;;
42802;SDS011;28447;48.682;9.022;2023-03-01T20:29:33;39.67;;;17.30;;
42802;SDS011;28447;48.682;9.022;2023-03-01T20:31:59;35.43;;;17.33;;
42802;SDS011;28447;48.682;9.022;2023-03-01T20:34:24;34.93;;;17.00;;
42802;SDS011;28447;48.682;9.022;2023-03-01T20:36:50;30.77;;;16.30;;
42802;SDS011;28447;48.682;9.022;2023-03-01T20:39:16;32.30;;;17.20;;
42802;SDS011;28447;48.682;9.022;2023-03-01T20:41:41;37.70;;;16.20;;
42802;SDS011;28447;48.682;9.022;2023-03-01T20:44:07;31.23;;;16.40;;
42802;SDS011;28447;48.682;9.022;2023-03-01T20:46:33;31.23;;;17.40;;
42802;SDS011;28447;48.682;9.022;2023-03-01T20:49:00;35.43;;;15.40;;
42802;SDS011;28447;48.682;9.022;2023-03-01T20:51:26;32.77;;;16.50;;
42802;SDS011;28447;48.682;9.022;2023-03-01T20:53:52;38.50;;;18.60;;
42802;SDS011;28447;48.682;9.022;2023-03-01T20:56:19;36.73;;;17.90;;
42802;SDS011;28447;48.682;9.022;2023-03-01T20:58:45;38.37;;;18.10;;
42802;SDS011;28447;48.682;9.022;2023-03-01T21:01:16;39.40;;;17.80;;
42802;SDS011;28447;48.682;9.022;2023-03-01T21:03:43;38.47;;;18.30;;
42802;SDS011;28447;48.682;9.022;2023-03-01T21:06:09;33.77;;;16.10;;
42802;SDS011;28447;48.682;9.022;2023-03-01T21:08:35;38.17;;;18.87;;
42802;SDS011;28447;48.682;9.022;2023-03-01T21:11:01;33.70;;;18.07;;
42802;SDS011;28447;48.682;9.022;2023-03-01T21:13:28;35.07;;;17.20;;
42802;SDS011;28447;48.682;9.022;2023-03-01T21:15:55;36.53;;;17.70;;
42802;SDS011;28447;48.682;9.022;2023-03-01T21:18:25;38.83;;;18.20;;
42802;SDS011;28447;48.682;9.022;2023-03-01T21:20:57;36.40;;;17.73;;
42802;SDS011;28447;48.682;9.022;2023-03-01T21:23:31;33.97;;;16.50;;
42802;SDS011;28447;48.682;9.022;2023-03-01T21:26:05;37.27;;;18.63;;
42802;SDS011;28447;48.682;9.022;2023-03-01T21:28:36;36.20;;;18.60;;
42802;SDS011;28447;48.682;9.022;2023-03-01T21:31:23;35.47;;;17.47;;
42802;SDS011;28447;48.682;9.022;2023-03-01T21:33:52;37.30;;;17.10;;
42802;SDS011;28447;48.682;9.022;2023-03-01T21:36:23;31.03;;;16.47;;
42802;SDS011;28447;48.682;9.022;2023-03-01T21:38:50;44.23;;;19.23;;
42802;SDS011;28447;48.682;9.022;2023-03-01T21:41:18;37.80;;;17.70;;
42802;SDS011;28447;48.682;9.022;2023-03-01T21:43:44;36.40;;;17.80;;
42802;SDS011;28447;48.682;9.022;2023-03-01T21:46:13;42.73;;;18.63;;
42802;SDS011;28447;48.682;9.022;2023-03-01T21:48:41;38.40;;;18.00;;
42802;SDS011;28447;48.682;9.022;2023-03-01T21:51:09;36.50;;;16.90;;
42802;SDS011;28447;48.682;9.022;2023-03-01T21:53:36;36.80;;;17.90;;
42802;SDS011;28447;48.682;9.022;2023-03-01T21:56:02;33.50;;;17.43;;